Time;durP1;ratioP1;P1;durP2;ratioP2;P2;SDS_P1;SDS_P2;PMS_P1;PMS_P2;Temp;Humidity;BMP_temperature;BMP_pressure;BME280_temperature;BME280_humidity;BME280_pressure;Samples;Min_cycle;Max_cycle;Signal;HPM_P1;HPM_P2
2022/07/14 00:00:53;;;;;;;6.45;4.68;;;16.80;99.90;;;;;;5050808;28;20176;-72
2022/07/14 00:03:18;;;;;;;7.80;4.53;;;16.70;99.90;;;;;;5050593;28;20025;-72
2022/07/14 00:05:44;;;;;;;8.55;4.13;;;16.60;99.90;;;;;;5115837;27;20058;-75
2022/07/14 00:08:10;;;;;;;6.43;4.38;;;16.40;99.90;;;;;;5155670;27;20018;-72
2022/07/14 00:10:36;;;;;;;10.77;4.10;;;16.40;99.90;;;;;;5157175;27;20030;-75
2022/07/14 00:13:02;;;;;;;6.82;5.03;;;16.30;99.90;;;;;;5155519;27;20027;-75
2022/07/14 00:15:28;;;;;;;6.97;4.65;;;16.30;99.90;;;;;;5156630;27;20030;-72
2022/07/14 00:17:56;;;;;;;7.05;4.72;;;16.20;99.90;;;;;;5156929;27;20399;-75
2022/07/14 00:20:22;;;;;;;11.63;4.53;;;16.10;99.90;;;;;;5155549;27;20075;-72
2022/07/14 00:22:48;;;;;;;8.35;4.90;;;15.90;99.90;;;;;;5156652;27;20027;-72
2022/07/14 00:25:14;;;;;;;8.68;4.65;;;15.90;99.90;;;;;;5156553;27;20015;-75
2022/07/14 00:27:40;;;;;;;6.05;4.25;;;15.90;99.90;;;;;;5156611;27;20023;-75
2022/07/14 00:30:06;;;;;;;8.50;4.55;;;15.80;99.90;;;;;;5156619;27;20067;-72
2022/07/14 00:32:35;;;;;;;6.80;4.85;;;15.80;99.90;;;;;;5156516;27;20022;-75
2022/07/14 00:35:02;;;;;;;10.07;4.85;;;15.70;99.90;;;;;;5156467;27;20023;-72
2022/07/14 00:37:28;;;;;;;7.28;4.32;;;15.70;99.90;;;;;;5156320;27;20026;-75
2022/07/14 00:39:56;;;;;;;8.32;5.07;;;15.60;99.90;;;;;;5156457;27;20019;-75
2022/07/14 00:42:33;;;;;;;6.82;4.03;;;15.60;99.90;;;;;;5155052;27;20109;-73
2022/07/14 00:45:00;;;;;;;6.88;4.43;;;15.40;99.90;;;;;;5155103;27;20105;-73
2022/07/14 00:47:26;;;;;;;6.82;4.38;;;15.30;99.90;;;;;;5156155;27;20167;-75
2022/07/14 00:49:53;;;;;;;4.80;4.03;;;15.30;99.90;;;;;;5156213;27;20094;-72
2022/07/14 00:52:20;;;;;;;6.43;4.50;;;15.30;99.90;;;;;;5156190;27;20066;-75
2022/07/14 00:54:46;;;;;;;6.15;4.60;;;15.30;99.90;;;;;;5154508;27;20023;-75
2022/07/14 00:57:12;;;;;;;9.27;4.50;;;15.40;99.90;;;;;;5154577;27;20037;-75
2022/07/14 00:59:38;;;;;;;4.93;4.05;;;15.40;99.90;;;;;;5154770;27;20023;-75
2022/07/14 01:02:04;;;;;;;6.75;4.80;;;15.40;99.90;;;;;;5155990;27;20033;-72
2022/07/14 01:04:29;;;;;;;6.72;4.35;;;15.40;99.90;;;;;;5142544;27;20011;-75
2022/07/14 01:06:55;;;;;;;6.40;4.57;;;15.40;99.90;;;;;;5050916;28;20105;-72
2022/07/14 01:09:21;;;;;;;7.55;4.50;;;15.50;99.90;;;;;;5049650;28;20019;-75
2022/07/14 01:11:47;;;;;;;8.75;4.57;;;15.40;99.90;;;;;;5051059;28;20522;-71
2022/07/14 01:14:12;;;;;;;6.32;4.15;;;15.40;99.90;;;;;;5049566;28;20053;-71
2022/07/14 01:16:38;;;;;;;12.43;5.72;;;15.40;99.90;;;;;;5050684;28;20033;-71
2022/07/14 01:19:04;;;;;;;8.05;4.40;;;15.40;99.90;;;;;;5050615;28;20021;-71
2022/07/14 01:21:30;;;;;;;5.55;4.15;;;15.40;99.90;;;;;;5050741;28;20101;-72
2022/07/14 01:23:55;;;;;;;6.78;4.10;;;15.50;99.90;;;;;;5050927;28;20036;-71
2022/07/14 01:26:21;;;;;;;5.32;4.43;;;15.50;99.90;;;;;;5050747;28;20052;-75
2022/07/14 01:28:47;;;;;;;5.32;3.80;;;15.50;99.90;;;;;;5050664;28;20029;-76
2022/07/14 01:31:13;;;;;;;5.93;3.83;;;15.50;99.90;;;;;;5049427;28;20496;-74
2022/07/14 01:33:38;;;;;;;6.93;4.78;;;15.50;99.90;;;;;;5050765;28;20489;-75
2022/07/14 01:36:05;;;;;;;5.95;4.57;;;15.40;99.90;;;;;;5050494;28;20112;-75
2022/07/14 01:38:30;;;;;;;6.22;4.05;;;15.40;99.90;;;;;;5050602;28;20134;-75
2022/07/14 01:40:56;;;;;;;7.03;5.10;;;15.40;99.90;;;;;;5050649;28;20450;-75
2022/07/14 01:43:22;;;;;;;6.00;4.15;;;15.30;99.90;;;;;;5049258;28;20044;-72
2022/07/14 01:45:48;;;;;;;5.80;4.20;;;15.30;99.90;;;;;;5050493;28;20029;-75
2022/07/14 01:48:13;;;;;;;4.50;3.85;;;15.30;99.90;;;;;;5049192;28;20013;-75
2022/07/14 01:50:39;;;;;;;8.02;4.47;;;15.30;99.90;;;;;;5049103;28;20495;-75
2022/07/14 01:53:05;;;;;;;5.95;4.35;;;15.30;99.90;;;;;;5050445;28;20108;-72
2022/07/14 01:55:30;;;;;;;5.75;4.60;;;15.40;99.90;;;;;;5050235;28;20477;-74
2022/07/14 01:57:56;;;;;;;6.18;4.20;;;15.50;99.90;;;;;;5050380;28;20017;-72
2022/07/14 02:00:22;;;;;;;5.40;4.63;;;15.50;99.90;;;;;;5050254;28;20489;-72
2022/07/14 02:02:47;;;;;;;8.85;4.65;;;15.50;99.90;;;;;;5050359;28;20033;-74
2022/07/14 02:05:13;;;;;;;8.30;4.35;;;15.60;99.90;;;;;;5094747;27;20030;-75
2022/07/14 02:07:39;;;;;;;5.80;4.30;;;15.60;99.90;;;;;;5153943;27;20042;-75
2022/07/14 02:12:50;;;;;;;5.13;4.40;;;15.60;99.90;;;;;;5155006;27;20026;-71
2022/07/14 02:15:16;;;;;;;7.97;4.95;;;15.60;99.90;;;;;;5153288;27;20031;-75
2022/07/14 02:17:41;;;;;;;6.45;4.50;;;15.60;99.90;;;;;;5155491;27;20034;-72
2022/07/14 02:20:09;;;;;;;5.68;5.15;;;15.60;99.90;;;;;;5159151;27;20019;-72
2022/07/14 02:22:35;;;;;;;6.25;4.88;;;15.60;99.90;;;;;;5159176;27;20023;-72
2022/07/14 02:25:01;;;;;;;9.85;4.85;;;15.60;99.90;;;;;;5158948;27;20015;-72
2022/07/14 02:27:26;;;;;;;6.32;4.60;;;15.60;99.90;;;;;;5158859;27;20031;-72
2022/07/14 02:29:53;;;;;;;4.28;3.72;;;15.60;99.90;;;;;;5158953;27;20468;-75
2022/07/14 02:32:19;;;;;;;7.28;4.68;;;15.60;99.90;;;;;;5157524;27;20019;-71
2022/07/14 02:34:45;;;;;;;7.85;4.80;;;15.70;99.90;;;;;;5157460;27;20018;-72
2022/07/14 02:37:10;;;;;;;5.85;4.60;;;15.60;99.90;;;;;;5158717;27;20039;-73
2022/07/14 02:39:36;;;;;;;6.10;4.70;;;15.70;99.90;;;;;;5158688;27;20364;-75
2022/07/14 02:42:02;;;;;;;6.88;4.95;;;15.70;99.90;;;;;;5158705;27;20026;-75
2022/07/14 02:44:28;;;;;;;5.70;5.00;;;15.70;99.90;;;;;;5158522;27;20018;-72
2022/07/14 02:46:53;;;;;;;7.25;4.60;;;15.70;99.90;;;;;;5158647;27;20027;-72
2022/07/14 02:49:19;;;;;;;9.25;4.80;;;15.70;99.90;;;;;;5157039;27;20030;-72
2022/07/14 02:51:45;;;;;;;6.88;4.57;;;15.70;99.90;;;;;;5157219;27;20122;-72
2022/07/14 02:54:11;;;;;;;6.03;5.45;;;15.70;99.90;;;;;;5157177;27;20102;-72
2022/07/14 02:56:36;;;;;;;9.02;5.10;;;15.70;99.90;;;;;;5158313;27;20023;-72
2022/07/14 02:59:06;;;;;;;9.55;4.68;;;15.70;99.90;;;;;;5158456;27;20062;-75
2022/07/14 03:01:31;;;;;;;6.22;4.38;;;15.70;99.90;;;;;;5158375;27;20442;-72
2022/07/14 03:03:57;;;;;;;6.95;5.00;;;15.70;99.90;;;;;;5158170;27;20046;-73
2022/07/14 03:06:23;;;;;;;6.07;4.50;;;15.60;99.90;;;;;;5060474;27;20502;-75
2022/07/14 03:08:49;;;;;;;7.47;4.55;;;15.60;99.90;;;;;;5052863;28;20021;-73
2022/07/14 03:11:15;;;;;;;5.80;4.70;;;15.60;99.90;;;;;;5052794;28;20591;-72
2022/07/14 03:13:41;;;;;;;12.27;4.82;;;15.60;99.90;;;;;;5052894;28;20032;-71
2022/07/14 03:16:09;;;;;;;5.40;4.22;;;15.60;99.90;;;;;;5052640;28;20029;-71
2022/07/14 03:18:41;;;;;;;5.03;4.63;;;15.70;99.90;;;;;;5051605;28;20024;-72
2022/07/14 03:21:12;;;;;;;7.65;5.13;;;15.70;99.90;;;;;;5051298;28;20036;-71
2022/07/14 03:23:39;;;;;;;7.00;4.57;;;15.80;99.90;;;;;;5052761;28;20408;-72
2022/07/14 03:26:05;;;;;;;5.72;4.55;;;15.80;99.90;;;;;;5052686;28;20029;-71
2022/07/14 03:28:31;;;;;;;5.18;4.43;;;15.90;99.90;;;;;;5052253;28;20100;-75
2022/07/14 03:30:57;;;;;;;8.55;4.40;;;15.90;99.90;;;;;;5052378;28;20232;-76
2022/07/14 03:33:24;;;;;;;9.70;4.43;;;15.90;99.90;;;;;;5052629;28;20017;-72
2022/07/14 03:35:50;;;;;;;5.55;4.95;;;15.90;99.90;;;;;;5052358;28;20401;-72
2022/07/14 03:38:16;;;;;;;7.10;4.72;;;16.00;99.90;;;;;;5052488;28;20088;-75
2022/07/14 03:40:42;;;;;;;7.80;5.47;;;16.00;99.90;;;;;;5052255;28;20036;-75
2022/07/14 03:43:08;;;;;;;5.03;4.60;;;16.00;99.90;;;;;;5051197;28;20477;-76
2022/07/14 03:45:34;;;;;;;7.03;4.50;;;16.10;99.90;;;;;;5052183;28;20038;-72
2022/07/14 03:48:00;;;;;;;5.40;4.60;;;16.20;99.90;;;;;;5052381;28;20100;-75
2022/07/14 03:50:25;;;;;;;4.93;4.22;;;16.30;99.90;;;;;;5052208;28;20037;-73
2022/07/14 03:52:51;;;;;;;9.82;5.18;;;16.40;99.90;;;;;;5052047;28;20029;-75
2022/07/14 03:55:17;;;;;;;6.18;4.90;;;16.60;99.90;;;;;;5050813;28;20025;-72
2022/07/14 03:57:42;;;;;;;7.70;4.35;;;16.80;99.90;;;;;;5052163;28;20052;-75
2022/07/14 04:00:09;;;;;;;9.85;5.07;;;17.00;99.90;;;;;;5050923;28;20017;-75
2022/07/14 04:02:35;;;;;;;7.15;4.40;;;17.00;99.90;;;;;;5051997;28;20025;-75
2022/07/14 04:05:00;;;;;;;6.03;4.43;;;17.20;99.90;;;;;;5089962;27;20029;-74
2022/07/14 04:07:26;;;;;;;4.90;4.25;;;17.50;99.90;;;;;;5155637;27;20045;-72
2022/07/14 04:09:52;;;;;;;9.43;5.78;;;17.80;99.90;;;;;;5157073;27;20094;-75
2022/07/14 04:12:18;;;;;;;8.77;5.93;;;18.00;99.90;;;;;;5156886;27;20019;-75
2022/07/14 04:14:43;;;;;;;20.52;10.95;;;18.20;99.90;;;;;;5156991;27;20464;-75
2022/07/14 04:17:09;;;;;;;21.40;12.75;;;18.50;99.90;;;;;;5156575;27;20119;-75
2022/07/14 04:19:35;;;;;;;12.20;7.45;;;18.70;99.90;;;;;;5156701;27;20387;-72
2022/07/14 04:22:00;;;;;;;11.07;7.03;;;18.90;99.90;;;;;;5156608;27;20027;-75
2022/07/14 04:24:26;;;;;;;6.90;5.30;;;19.10;99.90;;;;;;5155403;27;20163;-75
2022/07/14 04:26:52;;;;;;;9.85;4.38;;;19.30;99.90;;;;;;5156779;27;20041;-74
2022/07/14 04:29:18;;;;;;;5.95;4.28;;;19.20;99.90;;;;;;5156544;27;20017;-73
2022/07/14 04:31:43;;;;;;;6.03;3.95;;;19.20;99.90;;;;;;5156542;27;20471;-75
2022/07/14 04:34:10;;;;;;;5.28;4.32;;;19.30;99.90;;;;;;5155095;27;20040;-73
2022/07/14 04:36:36;;;;;;;5.88;4.65;;;19.50;99.90;;;;;;5156297;27;20034;-74
2022/07/14 04:39:04;;;;;;;5.20;3.90;;;19.50;99.90;;;;;;5155226;27;20414;-72
2022/07/14 04:41:30;;;;;;;7.30;4.07;;;19.60;99.90;;;;;;5154211;27;20522;-75
2022/07/14 04:43:55;;;;;;;6.32;3.58;;;19.70;98.40;;;;;;5156314;27;20047;-75
2022/07/14 04:46:21;;;;;;;6.05;3.85;;;19.80;94.70;;;;;;5154856;27;20031;-72
2022/07/14 04:54:16;;;;;;;6.40;3.25;;;20.10;86.50;;;;;;5156557;27;20449;-72
2022/07/14 04:56:42;;;;;;;3.22;2.90;;;20.30;86.00;;;;;;5155817;27;20031;-72
2022/07/14 04:59:07;;;;;;;6.05;3.38;;;20.30;79.60;;;;;;5155837;27;20023;-74
2022/07/14 05:01:33;;;;;;;6.57;3.13;;;20.40;82.20;;;;;;5154567;27;20022;-75
2022/07/14 05:03:59;;;;;;;7.75;3.90;;;20.40;81.50;;;;;;5156132;27;20050;-73
2022/07/14 05:06:25;;;;;;;8.73;3.47;;;20.50;80.40;;;;;;5053989;27;20109;-75
2022/07/14 05:08:50;;;;;;;5.93;3.35;;;20.60;79.40;;;;;;5051034;28;20052;-75
2022/07/14 05:11:16;;;;;;;6.93;3.63;;;20.70;78.90;;;;;;5049646;28;20025;-74
2022/07/14 05:13:42;;;;;;;11.52;3.90;;;20.80;78.40;;;;;;5050874;28;20017;-72
2022/07/14 05:16:08;;;;;;;4.10;3.47;;;20.80;76.70;;;;;;5050579;28;20497;-74
2022/07/14 05:18:33;;;;;;;6.40;4.13;;;20.90;76.60;;;;;;5050776;28;20049;-75
2022/07/14 05:20:59;;;;;;;5.13;3.08;;;21.00;74.80;;;;;;5049566;28;20082;-74
2022/07/14 05:23:25;;;;;;;4.30;3.90;;;21.10;74.80;;;;;;5049506;28;20021;-73
2022/07/14 05:25:50;;;;;;;5.03;3.50;;;21.20;72.30;;;;;;5049492;28;20462;-73
2022/07/14 05:28:16;;;;;;;4.70;3.38;;;21.20;72.20;;;;;;5050394;28;20389;-75
2022/07/14 05:30:42;;;;;;;3.63;2.97;;;21.20;72.50;;;;;;5050450;28;20035;-72
2022/07/14 05:33:08;;;;;;;5.90;3.83;;;21.20;74.50;;;;;;5050643;28;20426;-75
2022/07/14 05:35:34;;;;;;;6.03;3.88;;;21.30;75.40;;;;;;5049397;28;20120;-72
2022/07/14 05:37:59;;;;;;;6.90;3.78;;;21.40;76.00;;;;;;5050319;28;20033;-72
2022/07/14 05:40:25;;;;;;;8.60;3.70;;;21.50;76.50;;;;;;5050475;28;20477;-72
2022/07/14 05:42:51;;;;;;;5.63;3.55;;;21.50;74.90;;;;;;5050539;28;20595;-72
2022/07/14 05:45:17;;;;;;;6.13;3.95;;;21.50;75.50;;;;;;5050503;28;20017;-73
2022/07/14 05:47:43;;;;;;;5.35;3.97;;;21.60;74.00;;;;;;5050258;28;20359;-75
2022/07/14 05:50:09;;;;;;;9.32;3.78;;;21.70;76.00;;;;;;5050554;28;20082;-74
2022/07/14 05:52:35;;;;;;;6.22;4.22;;;21.90;76.00;;;;;;5050172;28;20025;-72
2022/07/14 05:55:01;;;;;;;13.25;4.25;;;22.10;76.10;;;;;;5050566;28;20100;-75
2022/07/14 05:57:27;;;;;;;5.88;3.63;;;22.10;74.10;;;;;;5049976;28;20037;-72
2022/07/14 05:59:53;;;;;;;7.38;3.67;;;22.30;73.10;;;;;;5050406;28;20017;-75
2022/07/14 06:02:18;;;;;;;7.55;3.80;;;22.40;72.00;;;;;;5048881;28;20040;-76
2022/07/14 06:04:45;;;;;;;7.13;4.10;;;22.50;72.40;;;;;;5080942;27;20015;-74
2022/07/14 06:07:10;;;;;;;7.88;3.42;;;22.60;71.60;;;;;;5154793;27;20593;-74
2022/07/14 06:09:37;;;;;;;6.82;3.88;;;22.60;70.20;;;;;;5155029;27;20023;-76
2022/07/14 06:12:05;;;;;;;7.82;4.10;;;22.60;68.80;;;;;;5154801;27;20023;-75
2022/07/14 06:14:31;;;;;;;5.88;3.65;;;22.70;69.50;;;;;;5155037;27;20070;-75
2022/07/14 06:16:57;;;;;;;4.93;3.30;;;22.80;71.60;;;;;;5155000;27;20042;-71
2022/07/14 06:19:23;;;;;;;8.32;3.80;;;22.90;71.70;;;;;;5154941;27;20023;-73
2022/07/14 06:21:49;;;;;;;7.97;3.83;;;23.00;71.80;;;;;;5154741;27;20018;-72
2022/07/14 06:24:15;;;;;;;7.30;3.22;;;23.10;71.50;;;;;;5154735;27;20388;-75
2022/07/14 06:26:41;;;;;;;5.07;2.90;;;23.20;69.30;;;;;;5154496;27;20087;-76
2022/07/14 06:29:08;;;;;;;4.47;2.80;;;23.30;68.30;;;;;;5153193;27;20034;-72
2022/07/14 06:31:36;;;;;;;5.88;3.28;;;23.40;66.30;;;;;;5154602;27;20460;-74
2022/07/14 06:34:05;;;;;;;5.15;2.55;;;23.30;65.90;;;;;;5154695;27;20094;-72
2022/07/14 06:36:31;;;;;;;6.07;3.08;;;23.30;64.30;;;;;;5154687;27;20037;-75
2022/07/14 06:38:58;;;;;;;3.83;2.47;;;23.50;66.10;;;;;;5154796;27;20101;-75
2022/07/14 06:41:24;;;;;;;5.20;3.05;;;23.60;65.30;;;;;;5154797;27;20368;-73
2022/07/14 06:43:49;;;;;;;3.85;3.00;;;23.60;63.10;;;;;;5154725;27;20071;-75
2022/07/14 06:46:16;;;;;;;4.53;2.78;;;23.60;63.10;;;;;;5154817;27;20121;-75
2022/07/14 06:48:43;;;;;;;3.30;2.97;;;23.70;63.50;;;;;;5154620;27;20026;-73
2022/07/14 06:51:09;;;;;;;4.43;2.83;;;23.70;63.50;;;;;;5152913;27;20079;-75
2022/07/14 06:53:35;;;;;;;5.68;2.80;;;23.80;61.60;;;;;;5151317;27;20027;-75
2022/07/14 06:56:00;;;;;;;3.13;2.83;;;23.90;63.10;;;;;;5153527;27;20038;-74
2022/07/14 06:58:27;;;;;;;6.30;2.72;;;24.10;63.40;;;;;;5153606;27;20050;-74
2022/07/14 07:00:53;;;;;;;7.30;2.88;;;24.20;62.40;;;;;;5152249;27;20436;-74
2022/07/14 07:03:18;;;;;;;4.03;2.58;;;24.40;62.60;;;;;;5155008;27;20062;-75
2022/07/14 07:08:28;;;;;;;10.52;2.70;;;24.30;62.20;;;;;;5052749;28;20036;-73
2022/07/14 07:10:58;;;;;;;2.80;2.60;;;24.40;62.60;;;;;;5052805;28;20481;-74
2022/07/14 07:13:26;;;;;;;8.50;3.92;;;24.30;62.60;;;;;;5051603;28;20017;-72
2022/07/14 07:15:53;;;;;;;3.50;2.80;;;24.40;62.20;;;;;;5052811;28;20037;-73
2022/07/14 07:18:18;;;;;;;5.20;3.22;;;24.40;62.20;;;;;;5052825;28;20099;-73
2022/07/14 07:20:44;;;;;;;5.22;3.30;;;24.40;62.20;;;;;;5051526;28;20060;-72
2022/07/14 07:23:10;;;;;;;4.82;3.00;;;24.60;63.60;;;;;;5052797;28;20097;-75
2022/07/14 07:25:36;;;;;;;4.82;3.33;;;24.60;61.20;;;;;;5052808;28;20435;-73
2022/07/14 07:28:02;;;;;;;5.30;3.03;;;24.70;60.10;;;;;;5052642;28;20021;-74
2022/07/14 07:30:28;;;;;;;3.58;3.00;;;24.80;59.50;;;;;;5052700;28;20121;-72
2022/07/14 07:32:54;;;;;;;4.13;2.58;;;24.80;59.40;;;;;;5052546;28;20026;-75
2022/07/14 07:35:20;;;;;;;3.95;3.20;;;24.60;58.50;;;;;;5051225;28;20024;-72
2022/07/14 07:37:47;;;;;;;3.55;2.72;;;24.60;58.80;;;;;;5051247;28;20500;-75
2022/07/14 07:40:13;;;;;;;5.80;2.90;;;24.70;60.00;;;;;;5051211;28;20025;-74
2022/07/14 07:42:38;;;;;;;6.15;2.85;;;24.70;60.60;;;;;;5052479;28;20033;-74
2022/07/14 07:45:05;;;;;;;6.35;3.08;;;24.70;60.60;;;;;;5052585;28;20100;-73
2022/07/14 07:47:30;;;;;;;3.00;2.75;;;24.70;61.20;;;;;;5052368;28;20032;-73
2022/07/14 07:49:56;;;;;;;3.50;3.20;;;24.80;59.30;;;;;;5051108;28;20029;-73
2022/07/14 07:52:22;;;;;;;4.15;2.65;;;24.80;59.70;;;;;;5052374;28;20104;-74
2022/07/14 07:54:48;;;;;;;3.55;3.15;;;25.10;60.90;;;;;;5052154;28;20504;-73
2022/07/14 07:57:15;;;;;;;3.88;3.10;;;25.30;62.20;;;;;;5052033;28;20040;-73
2022/07/14 07:59:40;;;;;;;3.45;3.15;;;25.40;59.20;;;;;;5051979;28;20021;-72
2022/07/14 08:02:06;;;;;;;3.42;3.13;;;25.40;59.50;;;;;;5052130;28;20089;-74
2022/07/14 08:04:32;;;;;;;4.63;2.92;;;25.60;59.40;;;;;;5075839;27;20375;-75
2022/07/14 08:06:58;;;;;;;2.85;2.65;;;25.70;60.00;;;;;;5157207;27;20046;-73
2022/07/14 08:09:24;;;;;;;3.88;2.92;;;25.70;57.20;;;;;;5155789;27;20022;-73
2022/07/14 08:11:50;;;;;;;6.00;3.17;;;25.50;57.50;;;;;;5157219;27;20019;-72
2022/07/14 08:17:01;;;;;;;3.63;3.33;;;25.40;59.20;;;;;;5156986;27;20098;-74
2022/07/14 08:19:27;;;;;;;5.20;3.30;;;25.60;58.20;;;;;;5156908;27;20042;-72
2022/07/14 08:21:54;;;;;;;2.78;2.58;;;25.80;58.20;;;;;;5156942;27;20482;-73
2022/07/14 08:24:20;;;;;;;3.65;2.35;;;26.00;57.50;;;;;;5156848;27;20490;-74
2022/07/14 08:26:46;;;;;;;3.75;2.40;;;25.70;52.30;;;;;;5155472;27;20030;-74
2022/07/14 08:29:13;;;;;;;9.77;3.10;;;25.80;51.90;;;;;;5155393;27;20018;-72
2022/07/14 08:31:38;;;;;;;3.90;2.00;;;26.10;53.70;;;;;;5156717;27;20093;-74
2022/07/14 08:34:04;;;;;;;2.80;2.30;;;26.20;51.90;;;;;;5156776;27;20548;-72
2022/07/14 08:36:30;;;;;;;3.00;2.15;;;26.30;51.30;;;;;;5155773;27;20030;-74
2022/07/14 08:38:56;;;;;;;2.00;1.90;;;26.40;50.90;;;;;;5156058;27;20049;-72
2022/07/14 08:41:22;;;;;;;2.75;2.28;;;26.40;51.60;;;;;;5156065;27;20018;-74
2022/07/14 08:43:49;;;;;;;4.07;1.88;;;26.50;51.50;;;;;;5156537;27;20428;-72
2022/07/14 08:46:15;;;;;;;3.63;2.08;;;26.60;51.50;;;;;;5155012;27;20035;-73
2022/07/14 08:48:40;;;;;;;4.78;2.33;;;26.40;48.90;;;;;;5155123;27;20145;-73
2022/07/14 08:51:08;;;;;;;4.07;2.40;;;26.20;49.20;;;;;;5156209;27;20467;-74
2022/07/14 08:53:35;;;;;;;2.95;2.65;;;26.00;50.20;;;;;;5154888;27;20391;-74
2022/07/14 08:56:01;;;;;;;2.70;2.22;;;25.80;50.30;;;;;;5154666;27;20038;-72
2022/07/14 08:58:26;;;;;;;3.30;2.72;;;25.80;50.70;;;;;;5156219;27;20500;-75
2022/07/14 09:00:53;;;;;;;4.57;2.10;;;25.60;51.10;;;;;;5154718;27;20026;-74
2022/07/14 09:03:19;;;;;;;2.97;2.60;;;25.60;51.80;;;;;;5156364;27;20471;-74
2022/07/14 09:05:45;;;;;;;3.00;2.63;;;25.60;51.50;;;;;;5076166;27;20105;-72
2022/07/14 09:08:13;;;;;;;3.25;2.70;;;25.90;51.20;;;;;;5051315;28;20385;-74
2022/07/14 09:10:40;;;;;;;2.78;2.40;;;25.90;51.20;;;;;;5049892;28;20025;-74
2022/07/14 09:13:24;;;;;;;2.95;2.67;;;26.00;52.30;;;;;;5051078;28;20035;-74
2022/07/14 09:16:28;;;;;;;3.95;2.50;;;25.90;51.70;;;;;;5049661;28;20040;-72
2022/07/14 09:19:12;;;;;;;3.30;2.85;;;26.20;52.90;;;;;;5051145;28;20025;-72
2022/07/14 09:21:51;;;;;;;4.78;2.60;;;26.20;51.50;;;;;;5050890;28;20028;-72
2022/07/14 09:24:19;;;;;;;3.25;2.38;;;26.30;52.30;;;;;;5049650;28;20496;-74
2022/07/14 09:26:51;;;;;;;3.78;2.53;;;26.10;52.50;;;;;;5050270;28;20021;-74
2022/07/14 09:29:23;;;;;;;5.63;2.85;;;26.10;52.50;;;;;;5050982;28;20024;-74
2022/07/14 09:31:49;;;;;;;2.95;2.65;;;26.40;52.00;;;;;;5049628;28;20374;-74
2022/07/14 09:34:29;;;;;;;3.85;2.85;;;26.50;51.40;;;;;;5050543;28;20023;-72
2022/07/14 09:37:16;;;;;;;3.17;2.67;;;26.50;51.60;;;;;;5050648;28;20033;-72
2022/07/14 09:39:59;;;;;;;3.90;2.72;;;26.90;51.10;;;;;;5050799;28;20028;-72
2022/07/14 09:42:50;;;;;;;3.55;2.70;;;26.90;51.50;;;;;;5050482;28;20035;-72
2022/07/14 09:45:18;;;;;;;5.90;2.78;;;26.50;52.00;;;;;;5050565;28;20029;-72
2022/07/14 09:47:58;;;;;;;7.97;2.90;;;26.80;51.30;;;;;;5050619;28;20089;-73
2022/07/14 09:50:41;;;;;;;2.63;2.40;;;26.60;51.60;;;;;;5050666;28;20069;-74
2022/07/14 09:53:30;;;;;;;4.68;2.35;;;26.70;50.80;;;;;;5050686;28;20431;-74
2022/07/14 09:56:09;;;;;;;4.25;2.58;;;26.80;50.80;;;;;;5050495;28;20041;-72
2022/07/14 09:58:51;;;;;;;3.85;2.85;;;27.10;52.00;;;;;;5050340;28;20031;-72
2022/07/14 10:01:21;;;;;;;4.20;2.78;;;27.30;51.70;;;;;;5050444;28;20031;-74
2022/07/14 10:03:53;;;;;;;3.15;2.85;;;27.10;51.20;;;;;;5051084;28;20377;-72
2022/07/14 10:06:21;;;;;;;5.35;2.97;;;27.30;51.10;;;;;;5030332;28;20045;-73
2022/07/14 10:08:53;;;;;;;3.80;2.60;;;27.20;52.10;;;;;;5030507;28;20025;-72
2022/07/14 10:11:19;;;;;;;2.45;2.33;;;27.40;52.20;;;;;;5029142;28;20026;-72
2022/07/14 10:13:45;;;;;;;2.90;2.70;;;27.60;52.00;;;;;;5030323;28;20026;-74
2022/07/14 10:16:11;;;;;;;3.47;2.40;;;27.10;50.70;;;;;;5030073;28;20402;-72
2022/07/14 10:18:36;;;;;;;3.97;2.67;;;26.70;51.00;;;;;;5030403;28;20025;-74
2022/07/14 10:21:05;;;;;;;3.42;2.80;;;26.80;52.10;;;;;;5030282;28;20034;-73
2022/07/14 10:23:32;;;;;;;7.75;2.80;;;26.90;53.00;;;;;;5030263;28;20502;-74
2022/07/14 10:25:59;;;;;;;3.80;2.78;;;26.90;52.00;;;;;;5030350;28;20033;-73
2022/07/14 10:28:26;;;;;;;3.03;2.70;;;27.00;53.30;;;;;;5028929;28;20024;-74
2022/07/14 10:31:25;;;;;;;3.63;2.65;;;27.40;52.70;;;;;;5030032;28;20037;-74
2022/07/14 10:34:02;;;;;;;4.05;2.75;;;27.60;53.80;;;;;;5030182;28;20037;-73
2022/07/14 10:36:33;;;;;;;2.78;2.58;;;27.70;51.90;;;;;;5029956;28;20038;-73
2022/07/14 10:39:02;;;;;;;3.40;3.00;;;27.70;51.00;;;;;;5030882;28;20029;-74
2022/07/14 10:41:59;;;;;;;2.58;2.38;;;28.00;52.40;;;;;;5032168;28;20777;-73
2022/07/14 10:44:28;;;;;;;3.17;2.95;;;27.90;50.70;;;;;;5033694;28;20021;-74
2022/07/14 10:47:10;;;;;;;3.63;2.42;;;27.70;49.90;;;;;;5033473;28;20025;-73
2022/07/14 10:50:13;;;;;;;4.33;3.20;;;27.40;51.60;;;;;;5033646;28;20029;-72
2022/07/14 10:52:54;;;;;;;3.88;3.10;;;27.20;51.50;;;;;;5033354;28;20097;-74
2022/07/14 10:55:22;;;;;;;2.60;2.38;;;27.30;52.10;;;;;;5033410;28;20033;-73
2022/07/14 10:58:01;;;;;;;3.97;2.95;;;27.30;53.50;;;;;;5033238;28;20026;-73
2022/07/14 11:03:25;;;;;;;3.55;3.17;;;27.30;52.30;;;;;;5033228;28;20026;-74
2022/07/14 11:08:32;;;;;;;3.10;2.78;;;27.30;53.40;;;;;;5158720;27;20042;-72
2022/07/14 11:11:00;;;;;;;3.60;2.72;;;27.00;52.70;;;;;;5158320;27;20031;-72
2022/07/14 11:13:26;;;;;;;3.15;2.90;;;26.80;52.10;;;;;;5158267;27;20589;-74
2022/07/14 11:16:03;;;;;;;3.63;3.33;;;26.90;51.60;;;;;;5158183;27;20058;-74
2022/07/14 11:18:37;;;;;;;3.33;3.03;;;26.80;52.90;;;;;;5156807;27;20044;-74
2022/07/14 11:21:07;;;;;;;5.13;3.00;;;26.80;53.30;;;;;;5156708;27;20022;-74
2022/07/14 11:23:35;;;;;;;3.65;3.08;;;26.60;53.10;;;;;;5158088;27;20023;-74
2022/07/14 11:26:06;;;;;;;4.03;2.70;;;26.90;54.30;;;;;;5158009;27;20076;-72
2022/07/14 11:28:43;;;;;;;4.85;3.13;;;27.00;55.40;;;;;;5157881;27;20376;-72
2022/07/14 11:31:21;;;;;;;3.00;2.80;;;27.30;54.50;;;;;;5158033;27;20027;-73
2022/07/14 11:37:01;;;;;;;4.22;3.00;;;27.50;51.70;;;;;;5157707;27;20053;-72
2022/07/14 11:39:37;;;;;;;3.95;3.25;;;27.50;53.00;;;;;;5157953;27;20105;-74
2022/07/14 11:42:07;;;;;;;6.00;2.80;;;27.70;52.40;;;;;;5157806;27;20102;-72
2022/07/14 11:44:35;;;;;;;3.40;3.10;;;27.70;52.50;;;;;;5157705;27;20067;-72
2022/07/14 11:47:04;;;;;;;6.35;3.30;;;27.60;52.10;;;;;;5157504;27;20387;-74
2022/07/14 11:49:31;;;;;;;3.45;3.03;;;27.70;52.00;;;;;;5157223;27;20015;-72
2022/07/14 11:51:58;;;;;;;3.25;2.97;;;27.70;53.10;;;;;;5157421;27;20031;-74
2022/07/14 11:54:25;;;;;;;4.05;3.13;;;27.60;51.80;;;;;;5157527;27;20098;-72
2022/07/14 11:57:11;;;;;;;2.80;2.60;;;27.70;52.00;;;;;;5135140;27;20431;-73
2022/07/14 11:59:42;;;;;;;3.85;3.20;;;28.00;52.40;;;;;;5051931;27;20496;-72
2022/07/14 12:02:10;;;;;;;2.83;2.63;;;28.10;51.50;;;;;;5052260;28;20100;-73
2022/07/14 12:04:49;;;;;;;3.85;2.85;;;28.20;53.10;;;;;;5085254;27;20107;-73
2022/07/14 12:07:15;;;;;;;4.22;3.20;;;28.40;51.50;;;;;;5156850;27;20044;-73
2022/07/14 12:09:42;;;;;;;5.35;3.38;;;28.80;51.50;;;;;;5157099;27;20022;-72
2022/07/14 12:12:08;;;;;;;3.17;2.88;;;28.90;50.10;;;;;;5157144;27;20542;-73
2022/07/14 12:14:43;;;;;;;4.22;2.97;;;28.40;51.00;;;;;;5155664;27;20097;-75
2022/07/14 12:17:08;;;;;;;4.00;3.22;;;28.30;50.70;;;;;;5155736;27;20034;-72
2022/07/14 12:19:36;;;;;;;3.28;2.97;;;28.50;51.40;;;;;;5156925;27;20023;-74
2022/07/14 12:22:04;;;;;;;3.22;3.03;;;28.40;51.70;;;;;;5155612;27;20019;-74
2022/07/14 12:24:30;;;;;;;3.95;3.60;;;28.20;51.40;;;;;;5156803;27;20387;-74
2022/07/14 12:26:59;;;;;;;5.18;3.28;;;28.10;51.30;;;;;;5156796;27;20023;-73
2022/07/14 12:29:26;;;;;;;3.35;3.05;;;27.80;51.00;;;;;;5156668;27;20094;-73
2022/07/14 12:31:52;;;;;;;4.97;3.30;;;28.00;53.20;;;;;;5155332;27;20079;-72
2022/07/14 12:34:18;;;;;;;5.90;3.45;;;28.40;52.70;;;;;;5155310;27;20046;-74
2022/07/14 12:36:45;;;;;;;4.82;3.10;;;28.40;52.00;;;;;;5155303;27;20027;-74
2022/07/14 12:39:12;;;;;;;5.43;2.80;;;28.50;51.20;;;;;;5155086;27;20105;-72
2022/07/14 12:41:40;;;;;;;4.70;3.22;;;28.20;51.00;;;;;;5156547;27;20026;-74
2022/07/14 12:44:08;;;;;;;3.15;2.85;;;28.10;52.20;;;;;;5156469;27;20091;-74
2022/07/14 12:46:34;;;;;;;3.35;3.08;;;28.50;52.90;;;;;;5156483;27;20117;-73
2022/07/14 12:49:09;;;;;;;3.45;3.15;;;28.90;52.10;;;;;;5156489;27;20023;-72
2022/07/14 12:51:35;;;;;;;3.80;3.45;;;29.20;51.20;;;;;;5156400;27;20050;-72
2022/07/14 12:54:06;;;;;;;3.80;3.13;;;28.60;49.80;;;;;;5156307;27;20440;-74
2022/07/14 12:56:54;;;;;;;2.77;2.50;;;28.60;49.40;;;;;;5156006;27;20110;-74
2022/07/14 12:59:24;;;;;;;2.60;2.40;;;28.40;50.80;;;;;;5155477;27;20135;-72
2022/07/14 13:01:59;;;;;;;4.93;2.65;;;28.40;51.50;;;;;;5155463;27;20026;-74
2022/07/14 13:04:29;;;;;;;5.45;3.13;;;28.60;51.00;;;;;;5127940;27;20103;-72
2022/07/14 13:06:55;;;;;;;3.10;2.90;;;28.70;50.20;;;;;;5049785;28;20049;-74
2022/07/14 13:09:22;;;;;;;4.60;3.20;;;28.60;49.80;;;;;;5051088;28;20040;-73
2022/07/14 13:11:48;;;;;;;2.83;2.55;;;28.50;50.60;;;;;;5049852;28;20359;-74